Browning, MT (59417)

11:00 AM MDT on April 26, 2017 (GMT -0600)
Cut Bank Municipal | | Change Station

Elev 3855 ft 48.61 °N, 112.38 °W | Updated 4 minutes ago

Rain
Rain
41 °F
Feels Like 37 °F
N
6
Wind Variable Wind from SSE

Today
High -- | Low -- °F
--% Chance of Precip.
Yesterday
High -- | Low -- °F
Precip. -- in
Pressure 29.72 in
Visibility 10.0 miles
Clouds Mostly Cloudy 1500 ft
Overcast 2200 ft
Windchill 37 °F
Dew Point 36 °F
Humidity 82%
Rainfall 0.03 in
Snow Depth Not available.
6:20 AM 8:40 PM
New Moon, 0% visible
METAR KCTB 261656Z AUTO 15005KT 10SM BKN015 OVC022 05/02 A2967 RMK AO2 SLP062 T00500022
Pressure 29.72 in
Visibility 10.0 miles
Clouds Mostly Cloudy 1500 ft
Overcast 2200 ft
Windchill 37 °F
Dew Point 36 °F
Humidity 82%
Rainfall 0.03 in
Snow Depth Not available.
6:20 AM 8:40 PM
New Moon, 0% visible
METAR KCTB 261656Z AUTO 15005KT 10SM BKN015 OVC022 05/02 A2967 RMK AO2 SLP062 T00500022

Get Severe Weather Alerts

Thanks for signing up!

Be on the lookout for a verification email in your inbox.

You'll start receiving the daily forecast at 8 AM.

×

10-Day Weather Forecast

Almanac

Astronomy

Apr. 26, 2017 Rise Set
Actual Time
Civil Twilight
Nautical Twilight
Astronomical Twilight
Moon
Length of Visible Light
Length of Day
Tomorrow will be .
, % of the Moon is Illuminated

Today's Extremes

State Highs State Lows

Community

WunderPhotos

WunderBlog® & News

Nearby

Air Quality

  Air Quality AQ Index Pollutant
Not available.

Snow Depth

Station Depth Elevation

Earthquake Activity

City Distance Mag. Time & Date
Minimum magnitude displayed is 2.5.

Coastal Water Temperatures

Place Temperature

Stations

Nearby Weather Stations

Station Location Temp. Windchill Dew Point Humidity Wind Precip. Elev Updated Type
                   

Watches & Warnings

There are currently no watches in effect.